Time;durP1;ratioP1;P1;durP2;ratioP2;P2;SDS_P1;SDS_P2;PMS_P1;PMS_P2;Temp;Humidity;BMP_temperature;BMP_pressure;BME280_temperature;BME280_humidity;BME280_pressure;Samples;Min_cycle;Max_cycle;Signal;HPM_P1;HPM_P2
2023/03/27 00:00:58;;;;;;;2.70;2.50;;;10.20;1.00;;;;;;5067914;28;20839;-58
2023/03/27 00:03:25;;;;;;;2.40;2.20;;;10.10;1.00;;;;;;5073248;28;20506;-57
2023/03/27 00:06:02;;;;;;;3.03;2.37;;;10.10;1.00;;;;;;5065930;28;20434;-57
2023/03/27 00:08:30;;;;;;;2.57;2.20;;;10.20;1.00;;;;;;5077038;28;20482;-57
2023/03/27 00:10:56;;;;;;;2.33;2.10;;;10.10;1.00;;;;;;5065607;28;20461;-57
2023/03/27 00:13:22;;;;;;;3.53;2.30;;;10.10;1.00;;;;;;5065247;28;20462;-59
2023/03/27 00:15:49;;;;;;;3.27;2.20;;;9.90;1.00;;;;;;5072737;28;20903;-57
2023/03/27 00:18:15;;;;;;;2.80;2.50;;;9.90;1.00;;;;;;5066157;28;20551;-57
2023/03/27 00:20:41;;;;;;;3.07;2.77;;;9.90;1.00;;;;;;5063961;28;20446;-57
2023/03/27 00:23:06;;;;;;;3.23;2.80;;;10.00;1.00;;;;;;5063330;28;20453;-56
2023/03/27 00:25:33;;;;;;;3.23;2.90;;;9.90;1.00;;;;;;5065759;28;20674;-56
2023/03/27 00:28:00;;;;;;;6.87;3.80;;;10.10;1.00;;;;;;5064763;28;20673;-57
2023/03/27 00:30:27;;;;;;;3.60;3.23;;;10.00;1.00;;;;;;5063136;28;20441;-57
2023/03/27 00:32:56;;;;;;;4.93;4.40;;;10.00;1.00;;;;;;5062769;28;20493;-58
2023/03/27 00:35:23;;;;;;;5.87;5.00;;;10.00;1.00;;;;;;5061617;28;20438;-57
2023/03/27 00:37:49;;;;;;;6.77;4.60;;;9.90;1.00;;;;;;5058276;28;20926;-58
2023/03/27 00:40:16;;;;;;;5.70;4.80;;;9.90;1.00;;;;;;5061932;28;20474;-57
2023/03/27 00:42:46;;;;;;;4.60;4.13;;;9.90;1.00;;;;;;5060734;28;20442;-56
2023/03/27 00:45:29;;;;;;;5.97;4.53;;;9.90;1.00;;;;;;5061416;28;20450;-57
2023/03/27 00:48:07;;;;;;;4.03;3.63;;;9.80;1.00;;;;;;5063482;28;20560;-58
2023/03/27 00:50:40;;;;;;;4.17;3.67;;;9.70;1.00;;;;;;5063116;28;20450;-58
2023/03/27 00:53:10;;;;;;;5.50;3.77;;;9.70;1.00;;;;;;5060706;28;21298;-56
2023/03/27 00:55:40;;;;;;;6.80;3.63;;;9.50;1.00;;;;;;5060053;28;20453;-56
2023/03/27 00:58:45;;;;;;;4.30;2.60;;;8.70;1.00;;;;;;5063813;28;20446;-56
2023/03/27 01:01:13;;;;;;;7.13;4.10;;;7.70;1.00;;;;;;5070308;28;20441;-54
2023/03/27 01:03:41;;;;;;;6.80;3.50;;;7.30;1.00;;;;;;5081629;28;20478;-54
2023/03/27 01:06:09;;;;;;;11.20;4.60;;;7.00;1.00;;;;;;5070556;28;20444;-54
2023/03/27 01:08:36;;;;;;;4.87;3.53;;;6.90;1.00;;;;;;5063552;28;20978;-55
2023/03/27 01:11:18;;;;;;;8.90;5.17;;;6.90;1.00;;;;;;5067648;28;20789;-56
2023/03/27 01:14:12;;;;;;;7.70;4.20;;;6.90;1.00;;;;;;5067225;28;20450;-56
2023/03/27 01:16:59;;;;;;;6.80;4.10;;;7.10;1.00;;;;;;5070707;28;20445;-55
2023/03/27 01:19:56;;;;;;;8.40;3.37;;;7.00;1.00;;;;;;5067911;28;20465;-54
2023/03/27 01:22:38;;;;;;;4.93;3.40;;;6.80;1.00;;;;;;5067577;28;20496;-54
2023/03/27 01:25:15;;;;;;;8.00;3.57;;;6.70;1.00;;;;;;5064312;28;20477;-55
2023/03/27 01:28:19;;;;;;;6.30;2.93;;;6.50;1.00;;;;;;5065682;28;21024;-54
2023/03/27 01:31:03;;;;;;;6.90;2.90;;;6.10;1.00;;;;;;5068458;28;20791;-55
2023/03/27 01:33:54;;;;;;;4.77;3.20;;;5.90;1.00;;;;;;5072268;28;20476;-55
2023/03/27 01:36:45;;;;;;;7.40;2.37;;;5.80;1.00;;;;;;5066194;28;20468;-55
2023/03/27 01:39:43;;;;;;;5.03;2.20;;;5.80;1.00;;;;;;5063308;28;20501;-56
2023/03/27 01:42:32;;;;;;;6.03;2.40;;;5.40;1.00;;;;;;5056083;28;20446;-54
2023/03/27 01:45:09;;;;;;;4.90;2.80;;;5.70;1.00;;;;;;5066922;28;20461;-54
2023/03/27 01:47:45;;;;;;;15.27;3.03;;;5.90;1.00;;;;;;5065922;28;20445;-53
2023/03/27 01:50:22;;;;;;;6.90;2.77;;;5.60;1.00;;;;;;5061920;28;21105;-54
2023/03/27 01:53:21;;;;;;;7.03;2.03;;;5.60;1.00;;;;;;5061051;28;20444;-54
2023/03/27 01:55:57;;;;;;;4.80;2.30;;;5.60;1.00;;;;;;5062617;28;20451;-54
2023/03/27 01:58:28;;;;;;;7.17;2.53;;;5.70;1.00;;;;;;5066435;28;20480;-54
2023/03/27 02:01:00;;;;;;;3.10;2.03;;;5.80;1.00;;;;;;5060354;28;20446;-54
2023/03/27 02:03:41;;;;;;;8.53;2.83;;;5.80;1.00;;;;;;5059407;28;20454;-53
2023/03/27 02:06:16;;;;;;;9.03;4.00;;;5.80;1.00;;;;;;5064497;28;20984;-54
2023/03/27 02:09:07;;;;;;;4.77;2.90;;;5.70;1.00;;;;;;5067142;28;20820;-54
2023/03/27 02:11:41;;;;;;;4.90;2.80;;;5.70;1.00;;;;;;5065053;28;20438;-54
2023/03/27 02:14:12;;;;;;;6.20;2.63;;;5.50;1.00;;;;;;5067864;28;20433;-53
2023/03/27 02:16:44;;;;;;;5.17;2.50;;;5.50;1.00;;;;;;5066850;28;20452;-52
2023/03/27 02:19:22;;;;;;;6.30;2.40;;;5.60;1.00;;;;;;5067055;28;20493;-54
2023/03/27 02:21:48;;;;;;;8.43;3.30;;;5.60;1.00;;;;;;5065415;28;20445;-54
2023/03/27 02:24:17;;;;;;;8.07;3.10;;;5.60;1.00;;;;;;5059914;28;20457;-55
2023/03/27 02:26:44;;;;;;;5.53;2.77;;;5.50;1.00;;;;;;5063229;28;20555;-54
2023/03/27 02:29:36;;;;;;;4.43;2.37;;;5.40;1.00;;;;;;5069960;28;20472;-55
2023/03/27 02:32:11;;;;;;;6.77;2.60;;;5.40;1.00;;;;;;5065003;28;20446;-53
2023/03/27 02:35:00;;;;;;;6.53;2.47;;;5.50;1.00;;;;;;5064059;28;20453;-52
2023/03/27 02:37:52;;;;;;;7.53;2.67;;;5.50;1.00;;;;;;5065488;28;20792;-52
2023/03/27 02:40:46;;;;;;;3.30;2.40;;;5.50;1.00;;;;;;5066079;28;20808;-53
2023/03/27 02:43:20;;;;;;;7.40;3.20;;;5.30;1.00;;;;;;5059527;28;20441;-53
2023/03/27 02:46:40;;;;;;;5.40;2.50;;;5.30;1.00;;;;;;5062995;28;20434;-53
2023/03/27 02:49:12;;;;;;;5.37;2.73;;;5.30;1.00;;;;;;5057086;28;20946;-55
2023/03/27 02:51:47;;;;;;;5.70;2.90;;;5.30;1.00;;;;;;5064033;28;20455;-55
2023/03/27 02:54:21;;;;;;;6.57;3.27;;;5.30;1.00;;;;;;5061027;28;20481;-55
2023/03/27 02:56:50;;;;;;;8.63;4.10;;;5.30;1.00;;;;;;5064960;28;20784;-54
2023/03/27 02:59:29;;;;;;;9.33;3.07;;;5.30;1.00;;;;;;5064541;28;20559;-53
2023/03/27 03:01:55;;;;;;;7.33;3.03;;;5.30;1.00;;;;;;5060176;28;20446;-53
2023/03/27 03:04:24;;;;;;;7.73;3.33;;;5.40;1.00;;;;;;5063856;28;20456;-54
2023/03/27 03:06:49;;;;;;;9.03;3.60;;;5.50;1.00;;;;;;5062985;28;20438;-54
2023/03/27 03:09:17;;;;;;;14.07;3.47;;;5.40;1.00;;;;;;5065373;28;20462;-53
2023/03/27 03:11:46;;;;;;;4.47;3.23;;;5.30;1.00;;;;;;5061702;28;20188;-54
2023/03/27 03:14:12;;;;;;;7.83;3.80;;;5.20;1.00;;;;;;5060523;28;20561;-54
2023/03/27 03:16:38;;;;;;;7.03;3.10;;;5.30;1.00;;;;;;5056215;28;21096;-53
2023/03/27 03:19:03;;;;;;;7.00;3.87;;;5.30;1.00;;;;;;5060315;28;20490;-54
2023/03/27 03:21:30;;;;;;;3.97;3.33;;;5.50;1.00;;;;;;5058685;28;20259;-54
2023/03/27 03:23:56;;;;;;;6.07;3.37;;;5.50;1.00;;;;;;5067665;28;20184;-54
2023/03/27 03:26:22;;;;;;;6.77;3.43;;;5.60;1.00;;;;;;5058800;28;20472;-54
2023/03/27 03:28:48;;;;;;;6.57;3.30;;;5.70;1.00;;;;;;5071876;28;20576;-55
2023/03/27 03:31:14;;;;;;;9.20;3.60;;;5.70;1.00;;;;;;5066295;28;20826;-54
2023/03/27 03:33:40;;;;;;;5.67;3.23;;;5.80;1.00;;;;;;5065718;28;20650;-54
2023/03/27 03:36:06;;;;;;;5.07;3.40;;;5.80;1.00;;;;;;5061793;28;21072;-54
2023/03/27 03:38:34;;;;;;;5.03;3.23;;;5.80;1.00;;;;;;5061560;28;20497;-54
2023/03/27 03:41:00;;;;;;;4.43;3.50;;;6.00;1.00;;;;;;5067578;28;20442;-53
2023/03/27 03:43:29;;;;;;;10.17;3.90;;;6.00;1.00;;;;;;5063696;28;21224;-55
2023/03/27 03:45:56;;;;;;;4.93;3.43;;;5.90;1.00;;;;;;5062537;28;20438;-55
2023/03/27 03:48:22;;;;;;;6.30;3.63;;;6.00;1.00;;;;;;5064370;28;20527;-55
2023/03/27 03:50:48;;;;;;;4.97;3.57;;;5.90;1.00;;;;;;5061391;28;20413;-55
2023/03/27 03:53:16;;;;;;;6.23;3.37;;;5.90;1.00;;;;;;5063092;28;20485;-56
2023/03/27 03:55:42;;;;;;;8.10;3.47;;;6.00;1.00;;;;;;5061480;28;20445;-54
2023/03/27 03:58:08;;;;;;;4.93;3.30;;;6.00;1.00;;;;;;5066573;28;20454;-54
2023/03/27 04:00:38;;;;;;;3.27;2.80;;;6.00;1.00;;;;;;5066434;28;20919;-55
2023/03/27 04:03:08;;;;;;;5.97;3.10;;;6.10;1.00;;;;;;5064316;28;21142;-57
2023/03/27 04:05:36;;;;;;;5.83;2.83;;;6.10;1.00;;;;;;5069003;28;20548;-54
2023/03/27 04:08:05;;;;;;;6.83;2.80;;;6.10;1.00;;;;;;5063582;28;20446;-56
2023/03/27 04:10:32;;;;;;;5.50;3.00;;;6.20;1.00;;;;;;5065369;28;20450;-55
2023/03/27 04:12:58;;;;;;;5.40;2.80;;;6.30;1.00;;;;;;5065769;28;20442;-55
2023/03/27 04:15:26;;;;;;;5.13;2.47;;;6.20;1.00;;;;;;5066125;28;20454;-55
2023/03/27 04:17:52;;;;;;;4.43;3.00;;;6.00;1.00;;;;;;5060974;28;20446;-54
2023/03/27 04:20:18;;;;;;;7.90;3.53;;;6.00;1.00;;;;;;5066604;28;20473;-55
2023/03/27 04:22:46;;;;;;;8.23;2.70;;;6.00;1.00;;;;;;5065620;28;20435;-55
2023/03/27 04:25:14;;;;;;;8.07;3.03;;;6.00;1.00;;;;;;5064414;28;20450;-55
2023/03/27 04:27:42;;;;;;;9.90;3.50;;;6.20;1.00;;;;;;5061038;28;20448;-56
2023/03/27 04:30:09;;;;;;;9.73;3.27;;;6.10;1.00;;;;;;5067677;28;20967;-55
2023/03/27 04:32:35;;;;;;;5.73;2.83;;;6.00;1.00;;;;;;5070240;28;20552;-54
2023/03/27 04:35:02;;;;;;;5.63;2.20;;;6.10;1.00;;;;;;5063338;28;20450;-54
2023/03/27 04:37:29;;;;;;;3.23;2.40;;;6.20;1.00;;;;;;5063672;28;20503;-55
2023/03/27 04:39:54;;;;;;;6.20;2.80;;;6.10;1.00;;;;;;5067285;28;20461;-54
2023/03/27 04:42:22;;;;;;;8.13;2.80;;;6.10;1.00;;;;;;5070300;28;20445;-56
2023/03/27 04:44:49;;;;;;;6.63;3.13;;;6.10;1.00;;;;;;5070005;28;20207;-55
2023/03/27 04:47:14;;;;;;;5.63;2.47;;;6.00;1.00;;;;;;5068645;28;20446;-53
2023/03/27 04:49:45;;;;;;;6.33;2.10;;;6.00;1.00;;;;;;5068260;28;20446;-54
2023/03/27 04:52:13;;;;;;;7.00;2.10;;;6.00;1.00;;;;;;5064162;28;20211;-56
2023/03/27 04:54:39;;;;;;;4.50;2.30;;;5.80;1.00;;;;;;5071682;28;20481;-56
2023/03/27 04:57:06;;;;;;;3.60;2.57;;;5.80;1.00;;;;;;5066910;28;20481;-54
2023/03/27 04:59:32;;;;;;;5.17;2.23;;;5.80;1.00;;;;;;5065337;28;20465;-55
2023/03/27 05:01:58;;;;;;;11.50;2.93;;;5.70;1.00;;;;;;5069439;28;20449;-56
2023/03/27 05:04:27;;;;;;;8.20;2.40;;;5.90;1.00;;;;;;5067553;28;20450;-58
2023/03/27 05:06:54;;;;;;;3.53;3.23;;;5.80;1.00;;;;;;5063029;28;20442;-57
2023/03/27 05:09:21;;;;;;;4.40;2.50;;;5.70;1.00;;;;;;5067417;28;20484;-55
2023/03/27 05:11:48;;;;;;;5.33;2.60;;;5.80;1.00;;;;;;5066724;28;20442;-55
2023/03/27 05:14:21;;;;;;;6.53;3.00;;;5.70;1.00;;;;;;5067550;28;20453;-56
2023/03/27 05:16:49;;;;;;;8.50;2.60;;;5.70;1.00;;;;;;5067530;28;20449;-55
2023/03/27 05:19:15;;;;;;;4.47;2.00;;;5.60;1.00;;;;;;5062599;28;20640;-56
2023/03/27 05:21:41;;;;;;;5.67;2.57;;;5.60;1.00;;;;;;5061376;28;20473;-55
2023/03/27 05:24:08;;;;;;;5.23;2.27;;;5.60;1.00;;;;;;5067229;28;20461;-56
2023/03/27 05:26:34;;;;;;;6.03;2.83;;;5.70;1.00;;;;;;5066699;28;20184;-56
2023/03/27 05:28:59;;;;;;;4.00;2.00;;;5.80;1.00;;;;;;5065042;28;20454;-54
2023/03/27 05:31:26;;;;;;;6.17;2.90;;;5.70;1.00;;;;;;5066570;28;20989;-56
2023/03/27 05:33:52;;;;;;;6.80;1.93;;;5.70;1.00;;;;;;5062778;28;20630;-56
2023/03/27 05:36:19;;;;;;;4.00;2.40;;;5.60;1.00;;;;;;5065668;28;20458;-56
2023/03/27 05:38:44;;;;;;;2.60;2.20;;;5.70;1.00;;;;;;5071507;28;20457;-55
2023/03/27 05:41:10;;;;;;;3.23;2.13;;;5.60;1.00;;;;;;5066288;28;20463;-56
2023/03/27 05:43:37;;;;;;;2.90;2.10;;;5.60;1.00;;;;;;5065698;28;20457;-57
2023/03/27 05:46:03;;;;;;;6.73;2.53;;;5.70;1.00;;;;;;5065589;28;20195;-56
2023/03/27 05:48:29;;;;;;;5.30;2.20;;;5.80;1.00;;;;;;5072526;28;20442;-56
2023/03/27 05:50:55;;;;;;;3.07;2.17;;;6.00;1.00;;;;;;5059904;28;20449;-55
2023/03/27 05:53:21;;;;;;;6.93;2.13;;;5.80;1.00;;;;;;5066640;28;20462;-55
2023/03/27 05:55:47;;;;;;;3.17;1.97;;;5.70;1.00;;;;;;5060232;28;20650;-57
2023/03/27 05:58:13;;;;;;;6.53;3.30;;;5.70;1.00;;;;;;5067692;28;20417;-55
2023/03/27 06:00:43;;;;;;;6.80;3.50;;;5.80;1.00;;;;;;5063219;28;20911;-55
2023/03/27 06:03:11;;;;;;;3.90;2.30;;;6.00;1.00;;;;;;5065881;28;20222;-56
2023/03/27 06:05:39;;;;;;;5.90;2.23;;;6.10;1.00;;;;;;5063454;28;20442;-57
2023/03/27 06:08:07;;;;;;;3.37;2.00;;;6.00;1.00;;;;;;5063435;28;20438;-56
2023/03/27 06:10:33;;;;;;;3.33;2.33;;;5.80;1.00;;;;;;5067668;28;20854;-56
2023/03/27 06:13:07;;;;;;;4.30;2.57;;;5.80;1.00;;;;;;5064878;28;20457;-57
2023/03/27 06:16:04;;;;;;;4.37;2.80;;;5.80;1.00;;;;;;5063309;28;20454;-55
2023/03/27 06:18:27;;;;;;;3.60;2.63;;;5.70;1.00;;;;;;5066809;28;20812;-56
2023/03/27 06:20:53;;;;;;;5.53;2.10;;;5.60;1.00;;;;;;5068661;28;20446;-57
2023/03/27 06:23:19;;;;;;;5.30;2.57;;;5.70;1.00;;;;;;5068545;28;20194;-55
2023/03/27 06:25:46;;;;;;;3.80;2.30;;;6.00;1.00;;;;;;5069024;28;20226;-57
2023/03/27 06:28:12;;;;;;;3.07;2.50;;;6.10;1.00;;;;;;5067588;28;20188;-54
2023/03/27 06:30:37;;;;;;;6.10;2.40;;;6.20;1.00;;;;;;5068347;28;20445;-56
2023/03/27 06:33:04;;;;;;;10.53;3.23;;;6.20;1.00;;;;;;5065286;28;20446;-57
2023/03/27 06:35:31;;;;;;;6.13;2.40;;;6.20;1.00;;;;;;5067727;28;20278;-55
2023/03/27 06:38:03;;;;;;;2.43;2.23;;;6.20;1.00;;;;;;5068572;28;20586;-57
2023/03/27 06:40:31;;;;;;;2.90;2.47;;;6.30;1.00;;;;;;5064662;28;20527;-56
2023/03/27 06:42:59;;;;;;;3.70;2.70;;;6.50;1.00;;;;;;5066075;28;20982;-57
2023/03/27 06:45:32;;;;;;;4.20;2.80;;;6.70;1.00;;;;;;5069122;28;20443;-57
2023/03/27 06:47:59;;;;;;;3.70;2.80;;;6.70;1.00;;;;;;5076098;28;20476;-56
2023/03/27 06:50:27;;;;;;;2.80;2.17;;;6.70;1.00;;;;;;5068188;28;20482;-57
2023/03/27 06:52:52;;;;;;;2.20;2.00;;;6.60;1.00;;;;;;5066332;28;20947;-57
2023/03/27 06:55:20;;;;;;;1.93;1.80;;;6.60;1.00;;;;;;5067932;28;20511;-56
2023/03/27 06:57:49;;;;;;;3.37;1.57;;;6.60;1.00;;;;;;5067799;28;20192;-56
2023/03/27 07:00:21;;;;;;;2.83;1.90;;;6.50;1.00;;;;;;5075065;28;20473;-55
2023/03/27 07:02:47;;;;;;;2.50;1.60;;;6.60;1.00;;;;;;5067726;28;20450;-56
2023/03/27 07:05:14;;;;;;;2.87;1.87;;;6.70;1.00;;;;;;5067084;28;20439;-55
2023/03/27 07:07:41;;;;;;;1.80;1.70;;;6.80;1.00;;;;;;5067281;28;20544;-57
2023/03/27 07:10:08;;;;;;;1.93;1.70;;;6.80;1.00;;;;;;5071883;28;20854;-56
2023/03/27 07:12:34;;;;;;;1.40;1.30;;;6.70;1.00;;;;;;5068724;28;20852;-58
2023/03/27 07:15:00;;;;;;;1.47;1.30;;;6.50;1.00;;;;;;5067388;28;20490;-56
2023/03/27 07:17:25;;;;;;;1.37;1.27;;;6.40;1.00;;;;;;5068762;28;20182;-57
2023/03/27 07:19:52;;;;;;;1.60;1.30;;;6.20;1.00;;;;;;5066351;28;20199;-56
2023/03/27 07:22:18;;;;;;;1.20;1.10;;;6.20;1.00;;;;;;5068845;28;20641;-56
2023/03/27 07:24:43;;;;;;;1.10;1.00;;;6.20;1.00;;;;;;5067114;28;20470;-57
2023/03/27 07:27:09;;;;;;;2.20;2.00;;;6.10;1.00;;;;;;5067679;28;20192;-56
2023/03/27 07:29:36;;;;;;;2.60;1.37;;;5.90;1.00;;;;;;5067905;28;20619;-57
2023/03/27 07:32:02;;;;;;;2.97;1.20;;;5.90;1.00;;;;;;5067116;28;20237;-58
2023/03/27 07:34:28;;;;;;;3.13;1.90;;;6.10;1.00;;;;;;5068044;28;20461;-56
2023/03/27 07:36:56;;;;;;;5.73;2.07;;;6.20;1.00;;;;;;5065631;28;20902;-56
2023/03/27 07:39:22;;;;;;;1.40;1.30;;;6.30;1.00;;;;;;5067544;28;20950;-57
2023/03/27 07:41:48;;;;;;;1.40;1.30;;;6.60;1.00;;;;;;5066669;28;20498;-55
2023/03/27 07:44:13;;;;;;;2.10;1.10;;;6.40;1.00;;;;;;5082974;28;20434;-57
2023/03/27 07:46:40;;;;;;;2.40;1.10;;;6.60;1.00;;;;;;5067629;28;20795;-58
2023/03/27 07:49:07;;;;;;;1.20;1.10;;;6.30;1.00;;;;;;5065551;28;20196;-58
2023/03/27 07:51:33;;;;;;;6.60;1.50;;;6.30;1.00;;;;;;5067198;28;20438;-56
2023/03/27 07:54:03;;;;;;;1.40;1.20;;;6.40;1.00;;;;;;5066969;28;20466;-57
2023/03/27 07:56:30;;;;;;;1.50;1.40;;;6.60;1.00;;;;;;5067781;28;20882;-58
2023/03/27 07:58:56;;;;;;;1.53;1.43;;;6.60;1.00;;;;;;5066651;28;20472;-57
2023/03/27 08:01:21;;;;;;;1.90;1.67;;;6.70;1.00;;;;;;5065054;28;20967;-58
2023/03/27 08:03:47;;;;;;;1.20;1.10;;;6.90;1.00;;;;;;5067298;28;20187;-57
2023/03/27 08:06:13;;;;;;;2.10;1.70;;;7.00;1.00;;;;;;5068212;28;20179;-56
2023/03/27 08:08:39;;;;;;;1.97;1.30;;;6.90;1.00;;;;;;5071058;28;20495;-57
2023/03/27 08:11:05;;;;;;;3.50;1.37;;;6.80;1.00;;;;;;5072039;28;20454;-56
2023/03/27 08:13:31;;;;;;;3.60;1.40;;;6.60;1.00;;;;;;5071352;28;20202;-56
2023/03/27 08:16:06;;;;;;;1.50;1.30;;;6.40;1.00;;;;;;5071391;28;20800;-56
2023/03/27 08:18:32;;;;;;;1.70;1.40;;;6.30;1.00;;;;;;5070453;28;20415;-59
2023/03/27 08:21:00;;;;;;;2.57;1.50;;;6.40;1.00;;;;;;5076035;28;20438;-58
2023/03/27 08:23:26;;;;;;;1.90;1.70;;;6.40;1.00;;;;;;5070263;28;20447;-56
2023/03/27 08:25:53;;;;;;;1.40;1.30;;;6.10;1.00;;;;;;5070846;28;20839;-58
2023/03/27 08:28:19;;;;;;;1.80;1.50;;;5.90;1.00;;;;;;5074401;28;20196;-55
2023/03/27 08:30:45;;;;;;;1.40;1.30;;;6.00;1.00;;;;;;5070731;28;20519;-56
2023/03/27 08:33:11;;;;;;;1.80;1.10;;;6.30;1.00;;;;;;5067743;28;20192;-57
2023/03/27 08:35:37;;;;;;;3.00;1.60;;;6.70;1.00;;;;;;5070628;28;20457;-56
2023/03/27 08:38:03;;;;;;;7.50;2.47;;;7.20;1.00;;;;;;5071470;28;20684;-57
2023/03/27 08:40:32;;;;;;;1.30;1.20;;;7.80;99.90;;;;;;5069956;28;20349;-56
2023/03/27 08:43:04;;;;;;;1.57;1.17;;;7.90;99.90;;;;;;5070702;28;20255;-57
2023/03/27 08:45:44;;;;;;;1.83;1.10;;;7.90;99.90;;;;;;5067543;28;20489;-57
2023/03/27 08:48:18;;;;;;;1.60;1.50;;;7.90;99.90;;;;;;5070910;28;20878;-56
2023/03/27 08:50:51;;;;;;;1.50;1.40;;;7.80;99.90;;;;;;5070099;28;20441;-57
2023/03/27 08:53:41;;;;;;;1.73;1.20;;;7.80;99.90;;;;;;5070426;28;20954;-56
2023/03/27 08:56:12;;;;;;;1.53;1.13;;;7.90;99.90;;;;;;5038829;28;20928;-57
2023/03/27 08:58:37;;;;;;;2.77;1.50;;;7.80;99.90;;;;;;5068326;28;20528;-57
2023/03/27 09:01:28;;;;;;;1.87;1.77;;;7.60;99.90;;;;;;5069564;28;20520;-57
2023/03/27 09:04:12;;;;;;;1.57;1.10;;;7.00;99.90;;;;;;5069105;28;20219;-56
2023/03/27 09:06:51;;;;;;;2.87;1.60;;;6.70;99.90;;;;;;5075524;28;20948;-57
2023/03/27 09:09:31;;;;;;;2.67;1.50;;;6.80;1.00;;;;;;5069575;28;20511;-57
2023/03/27 09:12:15;;;;;;;3.20;1.90;;;6.70;1.00;;;;;;5070119;28;20528;-56
2023/03/27 09:14:51;;;;;;;2.83;1.20;;;7.00;1.00;;;;;;5069314;28;20959;-57
2023/03/27 09:17:33;;;;;;;1.50;1.40;;;7.20;1.00;;;;;;5075237;28;20856;-57
2023/03/27 09:20:07;;;;;;;1.77;1.13;;;7.60;99.90;;;;;;5076401;28;20896;-58
2023/03/27 09:22:42;;;;;;;1.20;1.10;;;7.70;99.90;;;;;;5069497;28;20441;-57
2023/03/27 09:25:27;;;;;;;1.23;1.07;;;7.80;99.90;;;;;;5076310;28;20931;-57
2023/03/27 09:27:54;;;;;;;1.70;1.50;;;7.90;99.90;;;;;;5068611;28;20446;-55
2023/03/27 09:30:46;;;;;;;1.70;1.60;;;7.60;99.90;;;;;;5070064;28;20440;-56
2023/03/27 09:33:12;;;;;;;2.10;1.90;;;7.10;99.90;;;;;;5066937;28;20461;-58
2023/03/27 09:35:38;;;;;;;1.57;1.47;;;6.90;99.90;;;;;;5069905;28;20450;-57
2023/03/27 09:38:26;;;;;;;1.70;1.60;;;6.90;99.90;;;;;;5069329;28;21527;-57
2023/03/27 09:41:15;;;;;;;2.50;1.20;;;7.10;99.90;;;;;;5068908;28;20783;-57
2023/03/27 09:44:14;;;;;;;1.90;1.47;;;7.30;99.90;;;;;;5069953;28;20967;-57
2023/03/27 09:46:45;;;;;;;1.93;1.70;;;7.70;99.90;;;;;;5067634;28;22576;-56
2023/03/27 09:49:14;;;;;;;3.27;1.50;;;8.30;99.90;;;;;;5068397;28;20451;-56
2023/03/27 09:51:41;;;;;;;1.30;1.10;;;8.60;99.90;;;;;;5070228;28;20532;-56
2023/03/27 09:54:08;;;;;;;1.60;1.50;;;8.40;99.90;;;;;;5068668;28;20478;-58
2023/03/27 09:56:37;;;;;;;3.97;1.50;;;8.60;99.90;;;;;;5068764;28;20468;-57
2023/03/27 09:59:09;;;;;;;2.80;1.40;;;8.80;99.90;;;;;;5063654;28;20563;-57
2023/03/27 10:01:34;;;;;;;1.63;1.37;;;9.20;99.90;;;;;;5057150;28;20450;-56
2023/03/27 10:04:11;;;;;;;1.80;1.60;;;9.30;99.90;;;;;;5063380;28;20453;-63
2023/03/27 10:06:41;;;;;;;3.23;1.57;;;9.30;99.90;;;;;;5074512;28;20236;-55
2023/03/27 10:09:23;;;;;;;1.60;1.30;;;9.10;99.90;;;;;;5070500;28;20449;-56
2023/03/27 10:11:50;;;;;;;2.07;1.77;;;8.70;99.90;;;;;;5069328;28;20442;-56
2023/03/27 10:14:18;;;;;;;2.00;1.70;;;8.40;99.90;;;;;;5064280;28;20823;-57
2023/03/27 10:16:46;;;;;;;2.67;1.30;;;8.60;99.90;;;;;;5070798;28;20461;-56
2023/03/27 10:19:41;;;;;;;3.13;1.53;;;8.20;99.90;;;;;;5070901;28;20480;-57
2023/03/27 10:22:27;;;;;;;1.97;1.67;;;7.60;99.90;;;;;;5050095;28;20591;-58
2023/03/27 10:24:58;;;;;;;2.70;1.47;;;7.50;99.90;;;;;;5064343;28;20575;-57
2023/03/27 10:27:30;;;;;;;4.20;1.67;;;7.60;99.90;;;;;;5064125;28;20787;-56
2023/03/27 10:29:56;;;;;;;2.27;1.43;;;8.00;99.90;;;;;;5068785;28;20959;-57
2023/03/27 10:32:45;;;;;;;2.90;1.77;;;8.50;99.90;;;;;;5066600;28;20454;-55
2023/03/27 10:35:35;;;;;;;2.37;1.50;;;9.10;99.90;;;;;;5067933;28;20521;-57
2023/03/27 10:38:12;;;;;;;0.97;0.93;;;9.30;99.90;;;;;;5062956;28;20454;-55
2023/03/27 10:40:39;;;;;;;1.80;1.23;;;9.00;99.90;;;;;;5068760;28;20500;-56
2023/03/27 10:43:11;;;;;;;3.50;1.37;;;9.10;99.90;;;;;;5068474;28;20449;-57
2023/03/27 10:45:46;;;;;;;2.30;1.10;;;9.10;99.90;;;;;;5068110;28;20965;-56
2023/03/27 10:48:27;;;;;;;1.33;0.80;;;9.40;99.90;;;;;;5067168;28;20492;-57
2023/03/27 10:50:56;;;;;;;4.50;1.30;;;9.10;99.90;;;;;;5066930;28;20839;-55
2023/03/27 10:53:31;;;;;;;3.20;1.27;;;8.90;99.90;;;;;;5067594;28;21035;-57
2023/03/27 10:56:18;;;;;;;2.80;1.53;;;8.90;99.90;;;;;;5066507;28;20437;-56
2023/03/27 10:58:57;;;;;;;1.10;0.80;;;8.60;99.90;;;;;;5066930;28;20440;-56
2023/03/27 11:01:52;;;;;;;3.83;1.70;;;8.70;99.90;;;;;;5068237;28;20533;-57
2023/03/27 11:04:42;;;;;;;4.27;1.07;;;9.10;99.90;;;;;;5059031;28;20890;-57
2023/03/27 11:07:25;;;;;;;3.73;1.40;;;8.60;99.90;;;;;;5067567;28;20963;-56
2023/03/27 11:09:58;;;;;;;3.57;1.60;;;8.30;99.90;;;;;;5067767;28;20927;-57
2023/03/27 11:12:26;;;;;;;2.10;1.00;;;8.60;99.90;;;;;;5072559;28;20958;-56
2023/03/27 11:15:08;;;;;;;1.97;1.33;;;9.10;99.90;;;;;;5067804;28;20460;-58
2023/03/27 11:17:45;;;;;;;1.70;1.00;;;8.90;99.90;;;;;;5062913;28;20536;-56
2023/03/27 11:20:20;;;;;;;4.13;1.63;;;9.00;99.90;;;;;;5066864;28;20505;-57
2023/03/27 11:22:52;;;;;;;3.57;1.50;;;8.20;99.90;;;;;;5066421;28;20831;-55
2023/03/27 11:25:28;;;;;;;3.03;1.20;;;7.90;99.90;;;;;;5064064;28;20450;-57
2023/03/27 11:27:57;;;;;;;1.57;0.90;;;7.80;99.90;;;;;;5066943;28;20789;-56
2023/03/27 11:30:47;;;;;;;1.67;1.27;;;7.90;99.90;;;;;;5071258;28;20461;-56
2023/03/27 11:33:25;;;;;;;2.83;2.23;;;8.20;99.90;;;;;;5067521;28;20446;-56
2023/03/27 11:36:25;;;;;;;4.17;1.07;;;8.30;99.90;;;;;;5065873;28;20461;-57
2023/03/27 11:39:14;;;;;;;5.83;1.30;;;8.40;99.90;;;;;;5066551;28;20474;-56
2023/03/27 11:41:40;;;;;;;1.90;1.10;;;8.80;99.90;;;;;;5067548;28;20412;-55
2023/03/27 11:44:11;;;;;;;4.60;1.03;;;8.70;99.90;;;;;;5067802;28;20492;-57
2023/03/27 11:47:11;;;;;;;3.37;1.20;;;8.70;99.90;;;;;;5067788;28;20438;-55
2023/03/27 11:50:10;;;;;;;3.53;1.20;;;8.60;99.90;;;;;;5016027;28;20442;-56
2023/03/27 11:53:00;;;;;;;3.07;1.30;;;8.80;99.90;;;;;;5012056;28;20890;-55
2023/03/27 11:55:30;;;;;;;2.70;1.23;;;9.00;99.90;;;;;;5065284;28;20532;-55
2023/03/27 11:58:30;;;;;;;7.37;1.53;;;8.80;99.90;;;;;;5067103;28;20454;-55
2023/03/27 12:01:20;;;;;;;1.00;0.90;;;8.30;99.90;;;;;;5076527;28;20457;-56
2023/03/27 12:04:05;;;;;;;6.43;1.57;;;8.00;99.90;;;;;;5069515;28;20448;-56
2023/03/27 12:06:46;;;;;;;4.70;1.30;;;7.80;99.90;;;;;;5067032;28;20489;-57
2023/03/27 12:10:02;;;;;;;3.43;1.57;;;7.80;99.90;;;;;;5065844;28;20461;-55
2023/03/27 12:12:52;;;;;;;2.80;1.30;;;7.90;99.90;;;;;;5005931;28;20452;-57
2023/03/27 12:15:45;;;;;;;2.50;1.50;;;8.30;99.90;;;;;;5062142;28;20446;-56
2023/03/27 12:18:26;;;;;;;2.53;1.00;;;8.80;99.90;;;;;;5067397;28;20448;-57
2023/03/27 12:20:54;;;;;;;1.63;1.00;;;8.90;99.90;;;;;;5067316;28;20849;-57
2023/03/27 12:23:37;;;;;;;1.63;1.00;;;8.90;99.90;;;;;;5066171;28;20453;-56
2023/03/27 12:26:36;;;;;;;2.30;1.10;;;8.80;99.90;;;;;;5066812;28;20499;-56
2023/03/27 12:29:22;;;;;;;1.77;0.90;;;9.20;99.90;;;;;;5066932;28;20457;-57
2023/03/27 12:32:16;;;;;;;1.60;1.00;;;9.70;99.90;;;;;;5070324;28;20445;-56
2023/03/27 12:35:02;;;;;;;6.87;1.53;;;10.40;99.90;;;;;;5066893;28;20442;-57
2023/03/27 12:37:42;;;;;;;1.77;0.93;;;10.10;99.90;;;;;;5067180;28;21022;-58
2023/03/27 12:40:49;;;;;;;2.30;1.10;;;10.10;99.90;;;;;;5066588;28;20938;-55
2023/03/27 12:43:30;;;;;;;1.23;0.97;;;9.90;99.90;;;;;;5064005;28;20441;-57
2023/03/27 12:46:06;;;;;;;4.30;1.40;;;9.80;99.90;;;;;;5067128;28;20990;-56
2023/03/27 12:48:44;;;;;;;3.20;0.93;;;9.30;99.90;;;;;;5069689;28;20482;-57
2023/03/27 12:51:14;;;;;;;2.00;1.00;;;9.20;99.90;;;;;;5066604;28;20552;-57
2023/03/27 12:53:40;;;;;;;2.50;1.20;;;9.10;99.90;;;;;;5070103;28;20497;-57
2023/03/27 12:56:18;;;;;;;2.43;1.30;;;9.40;99.90;;;;;;5071008;28;20839;-57
2023/03/27 12:58:50;;;;;;;2.67;1.00;;;9.40;99.90;;;;;;5070354;28;20437;-56
2023/03/27 13:01:28;;;;;;;3.60;1.57;;;9.60;99.90;;;;;;5070954;28;20441;-57
2023/03/27 13:04:08;;;;;;;1.20;0.93;;;9.70;99.90;;;;;;5069165;28;20822;-58
2023/03/27 13:06:54;;;;;;;2.43;1.20;;;9.70;99.90;;;;;;5069905;28;20445;-56
2023/03/27 13:09:44;;;;;;;1.50;1.13;;;9.50;99.90;;;;;;5076113;28;20447;-57
2023/03/27 13:12:17;;;;;;;2.37;1.20;;;9.40;99.90;;;;;;5069767;28;20446;-57
2023/03/27 13:15:05;;;;;;;5.47;1.00;;;9.30;99.90;;;;;;5069448;28;20452;-56
2023/03/27 13:17:48;;;;;;;4.10;1.17;;;9.50;99.90;;;;;;5077021;28;21118;-57
2023/03/27 13:20:26;;;;;;;2.20;0.90;;;9.40;99.90;;;;;;5070146;28;20556;-56
2023/03/27 13:23:28;;;;;;;2.30;1.50;;;9.00;99.90;;;;;;5069157;28;20449;-57
2023/03/27 13:26:21;;;;;;;4.37;1.20;;;8.60;99.90;;;;;;5069785;28;20496;-56
2023/03/27 13:28:50;;;;;;;2.27;0.90;;;8.50;99.90;;;;;;5075862;28;20744;-55
2023/03/27 13:31:48;;;;;;;2.37;1.20;;;8.40;99.90;;;;;;5067188;28;20788;-56
2023/03/27 13:34:27;;;;;;;2.73;1.70;;;8.50;99.90;;;;;;5068894;28;20500;-57
2023/03/27 13:37:04;;;;;;;2.20;1.50;;;8.50;99.90;;;;;;5060460;28;20424;-56